Main page
METAR-TAF:

METAR-TAF

Airports :

Copenhagen Airport

Copenhagen, Denmark

latitude: 55-37N, longitude: 012-39E, elevation: 5 m

Current weather observation

The report was made 34 minutes ago, at 21:50 UTC
Wind 8 kt from the West/Southwest
Temperature 15°C
Humidity 94%
Pressure 1006 hPa
Visibility 10 km or more

METAR: EKCH 182150Z AUTO 24008KT 9999 FEW019/// 15/14 Q1006 NOSIG

Time: 00:24 (22:24 UTC)

Forecast

The report was made 3 hours and 21 minutes ago, at 19:03 UTC
Forecast valid from 18 at 18 UTC to 19 at 18 UTC
Wind 10 kt from the Southwest
Visibility 10 km or more
Broken clouds at a height of 2000 ft
Temporary
from 18 at 18 UTC to 18 at 20 UTC
Broken clouds at a height of 600 ft
Temporary
from 19 at 12 UTC to 19 at 18 UTC
Scattered clouds at a height of 2000 ft, Cumulonimbus.
rain showers

TAF: EKCH 181903Z 1818/1918 23010KT 9999 BKN020 TEMPO 1818/1820 BKN006 TEMPO 1912/1918 SHRA SCT020CB

Weather observations and forecasts of more than 4000 airports (METAR and TAF reports).

The available stations are represented by yellow and red dots on the map.

Hover mouse over dot to see the name of the station.

Then click to see weather observations and forecasts.

To change the map : click on the green buttons with a black cross to zoom in, on the green button with a dash to zoom out, or on the green arrows for adjacent maps.


METAR-TAF: